Aeroporto :
LOGIN :

Iscrizione | Disclaimer

   EN    FR    IT 

 










Sommario :    VFR   VFR Marginale   IFR   IFR Intensivo   IFR Molto Intensivo
Visibilità : 
Base nubi : 
>= 8 km
>= 3000ft
5 / 8 km
1000 / 3000 ft
1500m / 5 km
500 / 1000 ft
800 / 1500m
200 / 500 ft
< 800m
< 200 ft
Simboli :   Temporali  Nebbia  Neve Forte  Precipitazioni Forti  Vento > 20 kt
SIGMETs :   Varie  Temporali  Ghiacco  Turbolenza  Onda orograficha  Ceneri Vulcaniche






- Altitudine del aeroporto : 1363 ft


ETIC - Grafenwohr Army Air Field

ULTIMO METAR :
  • 180456Z AUTO 24007KT 9999 FEW021 BKN029 05/03 A3016 RMK AO2 CIG 022V029 SLP227 T00470027 $

METARs OBSOLETI :
  • 180411Z AUTO 24009KT 9999 BKN020 BKN065 BKN075 05/03 A3016 RMK AO2 SLP227 $
  • 180356Z AUTO 25010KT 9999 BKN018 OVC075 05/03 A3015 RMK AO2 BKN V OVC SLP223 T00500032 $
  • 180311Z AUTO 23007KT 9999 OVC019 05/03 A3014 RMK AO2 SLP220 $
  • 180256Z AUTO 23008KT 9999 OVC020 05/03 A3014 RMK AO2 OVC V BKN SLP220 T00520034 52010 $

TAF TAF ETIC
Valido dal 18 a 02 ore il 19 a 08 ore UTC


180210Z 1802/1908 25010KT 9999 BKN020 600206 QNH3014INS
BECMG 1804/1805 25008KT 8000 BR BKN020 600206 QNH3016INS
BECMG 1808/1809 27010G18KT 8000 -SHRA BKN015 QNH3019INS
BECMG 1819/1820 27010KT 9999 NSW BKN030 600306 QNH3018INS TX06/1812Z TN03/1805Z



MetMap, La meteo Aeronautica in un colpo d'occhio ! - Copyright ORBIFLY Dicembre 2007 - Disclaimer

ORBIFLY MET'MAP TEAM :

Programmazione e sviluppo : Alexandra Zaïnal
Concezione : Baudouin d'Aumeries
Aiuto per la programmazione : Marc-Olivier Méhu
Supporto tecnico e logistico : Manuel Goepfert
Aiuto per la traduzione : Arnaldo La Scala

Contatto : metmap@orbifly.com




FONTI E CREDITI :

   NOAA